Orbital elements of FENGYUN 1C DEB
| Launched | 9 May 1999 |
| Flight ended | – |
| Launch site | Taiyuan Space Center, PRC |
| Owner | People's Republic of China |
| NORAD ID | 31014 |
| Date fetched |
Epoch osculation |
Inc. [°] |
Ecc. | RA asc node [hr] |
Arg Peri. [°] |
Mean anom [°] |
Mean motion [rev/day] |
Abs. mag |
| Date fetched |
Epoch osculation |
Inc. [°] |
Ecc. | RA asc node [hr] |
Arg Peri. [°] |
Mean anom [°] |
Mean motion [rev/day] |
Abs. mag |
| 2026 May 03 17:57 | 2026 Apr 30 13:07:54 | 98.8878 | 0.00883 | 6.4491 | 169.4445 | 283.8345 | 13.98549 | – |
| 2026 May 02 17:57 | 2026 Apr 30 13:07:54 | 98.8878 | 0.00883 | 6.4491 | 169.4445 | 283.8345 | 13.98549 | – |
| 2026 May 01 17:56 | 2026 Apr 30 13:07:54 | 98.8878 | 0.00883 | 6.4491 | 169.4445 | 283.8345 | 13.98549 | – |
| 2026 Apr 30 17:56 | 2026 Apr 30 13:07:54 | 98.8878 | 0.00883 | 6.4491 | 169.4445 | 283.8345 | 13.98549 | – |
| 2026 Apr 29 17:57 | 2026 Apr 22 21:06:39 | 98.8874 | 0.00877 | 5.9535 | 190.5069 | 283.8345 | 13.98549 | – |
| 2026 Apr 28 17:56 | 2026 Apr 22 21:06:39 | 98.8874 | 0.00877 | 5.9535 | 190.5069 | 283.8345 | 13.98549 | – |
| 2026 Apr 27 17:58 | 2026 Apr 22 21:06:39 | 98.8874 | 0.00877 | 5.9535 | 190.5069 | 283.8345 | 13.98549 | – |
| 2026 Apr 26 17:58 | 2026 Apr 22 21:06:39 | 98.8874 | 0.00877 | 5.9535 | 190.5069 | 283.8345 | 13.98549 | – |
| 2026 Apr 25 17:58 | 2026 Apr 22 21:06:39 | 98.8874 | 0.00877 | 5.9535 | 190.5069 | 283.8345 | 13.98549 | – |
| 2026 Apr 24 17:59 | 2026 Apr 22 21:06:39 | 98.8874 | 0.00877 | 5.9535 | 190.5069 | 283.8345 | 13.98549 | – |
| 2026 Apr 23 17:57 | 2026 Apr 18 20:57:25 | 98.8870 | 0.00875 | 5.6946 | 201.5507 | 283.8345 | 13.98549 | – |
| 2026 Apr 22 17:57 | 2026 Apr 18 20:57:25 | 98.8870 | 0.00875 | 5.6946 | 201.5507 | 283.8345 | 13.98549 | – |
| 2026 Apr 21 17:57 | 2026 Apr 18 20:57:25 | 98.8870 | 0.00875 | 5.6946 | 201.5507 | 283.8345 | 13.98549 | – |
| 2026 Apr 20 17:57 | 2026 Apr 18 20:57:25 | 98.8870 | 0.00875 | 5.6946 | 201.5507 | 283.8345 | 13.98549 | – |
| 2026 Apr 19 17:58 | 2026 Apr 18 20:57:25 | 98.8870 | 0.00875 | 5.6946 | 201.5507 | 283.8345 | 13.98549 | – |
| 2026 Apr 18 17:56 | 2026 Apr 13 05:13:48 | 98.8855 | 0.00874 | 5.3292 | 217.2711 | 283.8345 | 13.98549 | – |
| 2026 Apr 16 17:57 | 2026 Apr 13 05:13:48 | 98.8855 | 0.00874 | 5.3292 | 217.2711 | 283.8345 | 13.98549 | – |
| 2026 Apr 14 17:57 | 2026 Apr 13 05:13:48 | 98.8855 | 0.00874 | 5.3292 | 217.2711 | 283.8345 | 13.98549 | – |
| 2026 Apr 13 17:57 | 2026 Apr 13 05:13:48 | 98.8855 | 0.00874 | 5.3292 | 217.2711 | 283.8345 | 13.98549 | – |
| 2026 Apr 12 17:57 | 2026 Apr 07 05:00:56 | 98.8842 | 0.00873 | 4.9410 | 234.0432 | 283.8345 | 13.98549 | – |
| 2026 Apr 11 17:57 | 2026 Apr 07 05:00:56 | 98.8842 | 0.00873 | 4.9410 | 234.0432 | 283.8345 | 13.98549 | – |
| 2026 Apr 10 17:58 | 2026 Apr 07 05:00:56 | 98.8842 | 0.00873 | 4.9410 | 234.0432 | 283.8345 | 13.98549 | – |
| 2026 Apr 09 18:01 | 2026 Apr 07 05:00:56 | 98.8842 | 0.00873 | 4.9410 | 234.0432 | 283.8345 | 13.98549 | – |
| 2026 Apr 08 17:57 | 2026 Apr 07 05:00:56 | 98.8842 | 0.00873 | 4.9410 | 234.0432 | 283.8345 | 13.98549 | – |
| 2026 Apr 07 17:57 | 2026 Apr 02 04:49:51 | 98.8834 | 0.00874 | 4.6175 | 248.0576 | 283.8345 | 13.98549 | – |
| 2026 Apr 06 17:57 | 2026 Apr 02 04:49:51 | 98.8834 | 0.00874 | 4.6175 | 248.0576 | 283.8345 | 13.98549 | – |